createdAt,value
2022-10-01T00:02:21.263Z,11.23
2022-10-01T00:07:25.262Z,8.80
2022-10-01T00:12:27.872Z,11.32
2022-10-01T00:17:30.503Z,11.00
2022-10-01T00:22:36.242Z,11.40
2022-10-01T00:27:40.017Z,9.07
2022-10-01T00:32:42.593Z,11.03
2022-10-01T00:37:50.509Z,11.85
2022-10-01T00:42:53.050Z,10.98
2022-10-01T00:47:58.390Z,14.60
2022-10-01T00:53:06.068Z,10.32
2022-10-01T00:58:10.334Z,9.65
2022-10-01T01:03:13.723Z,11.18
2022-10-01T01:08:18.647Z,8.48
2022-10-01T01:13:30.761Z,8.57
2022-10-01T01:18:41.183Z,5.88
2022-10-01T01:24:09.709Z,7.45
2022-10-01T01:29:21.689Z,7.05
2022-10-01T01:34:28.805Z,5.82
2022-10-01T01:39:34.381Z,5.20
2022-10-01T01:44:42.821Z,6.13
2022-10-01T01:49:48.798Z,6.20
2022-10-01T01:54:52.646Z,5.72
2022-10-01T01:59:56.571Z,5.57
2022-10-01T02:05:03.619Z,5.85
2022-10-01T02:10:18.849Z,6.25
2022-10-01T02:15:28.987Z,6.32
2022-10-01T02:20:37.859Z,9.20
2022-10-01T02:25:44.164Z,6.70
2022-10-01T02:30:50.254Z,5.60
2022-10-01T02:35:54.678Z,7.63
2022-10-01T02:41:02.810Z,4.15
2022-10-01T02:46:15.799Z,5.20
2022-10-01T02:51:26.646Z,6.40
2022-10-01T02:56:48.951Z,6.50
2022-10-01T03:01:53.749Z,6.22
2022-10-01T03:06:58.791Z,3.88
2022-10-01T03:12:02.141Z,6.30
2022-10-01T03:17:06.550Z,6.97
2022-10-01T03:22:10.319Z,5.35
2022-10-01T03:27:12.961Z,7.50
2022-10-01T03:32:17.277Z,7.75
2022-10-01T03:37:20.194Z,7.57
2022-10-01T03:42:22.781Z,7.93
2022-10-01T03:47:26.922Z,9.80
2022-10-01T03:52:29.463Z,11.70
2022-10-01T03:57:32.063Z,9.35
2022-10-01T04:02:36.123Z,8.35
2022-10-01T04:07:38.810Z,5.90
2022-10-01T04:12:41.350Z,8.85
2022-10-01T04:17:46.092Z,8.68
2022-10-01T04:22:49.131Z,7.82
2022-10-01T04:27:57.569Z,8.18
2022-10-01T04:33:01.593Z,8.88
2022-10-01T04:38:06.663Z,7.05
2022-10-01T04:43:10.605Z,11.20
2022-10-01T04:48:14.474Z,9.77
2022-10-01T04:53:17.126Z,10.43
2022-10-01T04:58:19.883Z,9.05
2022-10-01T05:03:23.777Z,11.40
2022-10-01T05:08:26.441Z,13.57
2022-10-01T05:13:30.229Z,13.82
2022-10-01T05:18:34.463Z,15.27
2022-10-01T05:23:37.018Z,13.43
2022-10-01T05:28:44.359Z,11.45
2022-10-01T05:33:48.280Z,10.65
2022-10-01T05:38:52.356Z,14.32
2022-10-01T05:43:54.950Z,8.45
2022-10-01T05:48:58.826Z,12.07
2022-10-01T05:54:02.452Z,12.13
2022-10-01T05:59:05.391Z,11.97
2022-10-01T06:04:10.678Z,14.02
2022-10-01T06:09:13.961Z,16.92
2022-10-01T06:14:16.928Z,13.88
2022-10-01T06:19:20.948Z,10.48
2022-10-01T06:24:26.321Z,11.25
2022-10-01T06:29:28.927Z,12.60
2022-10-01T06:34:32.873Z,13.02
2022-10-01T06:39:35.535Z,11.63
2022-10-01T06:44:38.248Z,12.73
2022-10-01T06:49:46.751Z,12.38
2022-10-01T06:54:50.268Z,11.25
2022-10-01T06:59:54.252Z,12.90
2022-10-01T07:04:59.944Z,8.52
2022-10-01T07:10:03.013Z,13.60
2022-10-01T07:15:06.853Z,14.85
2022-10-01T07:20:11.513Z,14.50
2022-10-01T07:25:15.223Z,12.35
2022-10-01T07:30:17.950Z,10.70
2022-10-01T07:35:22.619Z,11.57
2022-10-01T07:40:27.482Z,8.95
2022-10-01T07:45:30.362Z,8.65
2022-10-01T07:50:34.613Z,9.43
2022-10-01T07:55:42.302Z,8.93
2022-10-01T08:00:46.415Z,9.13
2022-10-01T08:05:50.560Z,12.45
2022-10-01T08:10:53.580Z,8.30
2022-10-01T08:15:56.140Z,8.15
2022-10-01T08:21:02.061Z,6.93
2022-10-01T08:26:07.698Z,6.80
2022-10-01T08:31:10.251Z,7.03
2022-10-01T08:36:14.340Z,6.88
2022-10-01T08:41:33.657Z,6.22
2022-10-01T08:46:38.561Z,4.55
2022-10-01T08:51:48.004Z,6.03
2022-10-01T08:56:51.160Z,4.93
2022-10-01T09:01:53.774Z,3.63
2022-10-01T09:07:05.254Z,4.50
2022-10-01T09:12:28.228Z,34.45
2022-10-01T09:17:51.666Z,11.32
2022-10-01T09:23:08.657Z,11.20
2022-10-01T09:28:15.776Z,1.73
2022-10-01T09:33:20.816Z,4.00
2022-10-01T09:38:32.334Z,1.77
2022-10-01T09:43:38.491Z,2.25
2022-10-01T09:48:46.212Z,3.28
2022-10-01T09:54:03.394Z,2.08
2022-10-01T09:59:13.476Z,2.85
2022-10-01T10:04:20.950Z,1.55
2022-10-01T10:09:30.175Z,1.20
2022-10-01T10:14:34.964Z,2.22
2022-10-01T10:19:38.401Z,2.00
2022-10-01T10:24:42.491Z,1.67
2022-10-01T10:29:45.156Z,1.60
2022-10-01T10:34:47.964Z,23.23
2022-10-01T10:39:53.881Z,11.52
2022-10-01T10:45:03.287Z,5.57
2022-10-01T10:50:07.574Z,2.35
2022-10-01T10:55:26.890Z,1.13
2022-10-01T11:00:29.716Z,1.02
2022-10-01T11:05:34.832Z,1.60
2022-10-01T11:10:47.885Z,0.82
2022-10-01T11:16:09.138Z,1.38
2022-10-01T11:21:23.854Z,1.10
2022-10-01T11:31:39.406Z,0.60
2022-10-01T11:36:54.711Z,0.55
2022-10-01T11:42:03.454Z,1.55
2022-10-01T11:47:10.870Z,1.35
2022-10-01T11:52:23.588Z,1.52
2022-10-01T11:57:45.552Z,0.60
2022-10-01T12:02:56.161Z,0.93
2022-10-01T12:08:09.354Z,0.95
2022-10-01T12:13:22.497Z,0.85
2022-10-01T12:18:31.932Z,0.82
2022-10-01T12:23:48.261Z,0.60
2022-10-01T12:29:00.452Z,0.55
2022-10-01T12:34:19.224Z,0.60
2022-10-01T12:39:39.949Z,0.40
2022-10-01T12:44:57.792Z,1.92
2022-10-01T12:50:12.474Z,0.28
2022-10-01T13:00:41.779Z,0.50
2022-10-01T13:05:53.664Z,0.32
2022-10-01T13:11:05.635Z,0.60
2022-10-01T13:16:17.860Z,0.50
2022-10-01T13:21:32.321Z,0.20
2022-10-01T13:26:42.260Z,1.38
2022-10-01T13:31:58.032Z,0.80
2022-10-01T13:37:11.790Z,0.45
2022-10-01T13:42:22.385Z,0.40
2022-10-01T13:47:28.053Z,0.38
2022-10-01T13:52:31.566Z,1.35
2022-10-01T13:57:36.363Z,0.80
2022-10-01T14:02:42.158Z,0.60
2022-10-01T14:07:48.247Z,0.75
2022-10-01T14:13:09.281Z,1.85
2022-10-01T14:18:17.809Z,4.18
2022-10-01T14:23:27.855Z,0.35
2022-10-01T14:28:53.381Z,1.25
2022-10-01T14:34:25.949Z,0.60
2022-10-01T14:39:30.035Z,0.40
2022-10-01T14:44:38.698Z,0.75
2022-10-01T14:49:42.656Z,1.48
2022-10-01T14:54:48.244Z,0.20
2022-10-01T14:59:50.963Z,0.52
2022-10-01T15:04:57.669Z,1.15
2022-10-01T15:10:07.541Z,0.57
2022-10-01T15:15:21.661Z,0.63
2022-10-01T15:20:25.910Z,0.50
2022-10-01T15:25:32.665Z,0.82
2022-10-01T15:30:37.414Z,0.57
2022-10-01T15:35:41.802Z,1.52
2022-10-01T15:46:16.305Z,0.70
2022-10-01T15:51:24.821Z,0.70
2022-10-01T15:56:27.458Z,0.40
2022-10-01T16:01:41.846Z,1.02
2022-10-01T16:06:48.247Z,0.70
2022-10-01T16:11:52.893Z,0.88
2022-10-01T16:17:28.588Z,0.85
2022-10-01T16:22:32.890Z,1.65
2022-10-01T16:27:46.077Z,0.35
2022-10-01T16:32:50.506Z,1.63
2022-10-01T16:42:58.188Z,2.38
2022-10-01T16:48:03.244Z,2.05
2022-10-01T16:53:06.053Z,2.97
2022-10-01T16:58:09.073Z,2.85
2022-10-01T17:03:16.246Z,1.10
2022-10-01T17:08:19.143Z,1.73
2022-10-01T17:13:21.677Z,3.28
2022-10-01T17:18:26.217Z,2.35
2022-10-01T17:23:28.943Z,1.38
2022-10-01T17:28:31.548Z,1.67
2022-10-01T17:33:36.571Z,2.03
2022-10-01T17:38:40.280Z,1.80
2022-10-01T17:43:42.836Z,3.30
2022-10-01T17:48:48.758Z,3.00
2022-10-01T17:53:51.373Z,3.83
2022-10-01T17:58:55.026Z,1.95
2022-10-01T18:04:00.678Z,2.47
2022-10-01T18:09:03.765Z,4.57
2022-10-01T18:14:07.856Z,3.25
2022-10-01T18:24:36.225Z,2.53
2022-10-01T18:29:39.054Z,2.05
2022-10-01T18:34:48.206Z,4.20
2022-10-01T18:39:56.073Z,3.17
2022-10-01T18:45:02.186Z,2.30
2022-10-01T18:50:17.887Z,2.08
2022-10-01T18:55:31.505Z,2.78
2022-10-01T19:00:41.722Z,2.38
2022-10-01T19:06:01.329Z,2.53
2022-10-01T19:11:09.505Z,3.95
2022-10-01T19:16:23.656Z,2.40
2022-10-01T19:21:32.986Z,2.38
2022-10-01T19:26:45.197Z,2.85
2022-10-01T19:31:55.398Z,1.95
2022-10-01T19:37:02.789Z,4.43
2022-10-01T19:42:11.668Z,5.05
2022-10-01T19:47:28.847Z,3.03
2022-10-01T19:52:38.173Z,2.40
2022-10-01T19:57:42.613Z,6.32
2022-10-01T20:08:00.938Z,2.85
2022-10-01T20:13:21.419Z,2.65
2022-10-01T20:18:31.732Z,2.85
2022-10-01T20:23:44.571Z,2.10
2022-10-01T20:28:58.413Z,2.35
2022-10-01T20:34:09.529Z,2.20
2022-10-01T20:39:20.080Z,2.25
2022-10-01T20:44:28.164Z,2.55
2022-10-01T20:49:35.392Z,2.67
2022-10-01T20:54:46.599Z,1.98
2022-10-01T20:59:54.110Z,4.85
2022-10-01T21:05:03.990Z,2.00
2022-10-01T21:10:19.937Z,2.40
2022-10-01T21:15:28.481Z,5.13
2022-10-01T21:20:45.126Z,4.97
2022-10-01T21:26:06.088Z,2.40
2022-10-01T21:31:25.427Z,6.05
2022-10-01T21:36:35.016Z,3.13
2022-10-01T21:41:54.482Z,2.95
2022-10-01T21:47:04.574Z,6.38
2022-10-01T21:52:20.898Z,2.58
2022-10-01T21:57:39.490Z,4.35
2022-10-01T22:02:54.352Z,3.38
2022-10-01T22:08:06.462Z,3.13
2022-10-01T22:13:17.139Z,4.28
2022-10-01T22:18:36.614Z,5.28
2022-10-01T22:23:43.432Z,4.60
2022-10-01T22:28:51.526Z,7.28
2022-10-01T22:34:01.280Z,2.83
2022-10-01T22:39:08.580Z,8.77
2022-10-01T22:44:15.531Z,3.42
2022-10-01T22:49:36.094Z,4.18
2022-10-01T22:54:49.697Z,5.97
2022-10-01T23:00:02.556Z,5.10
2022-10-01T23:05:15.795Z,4.30
2022-10-01T23:10:24.566Z,4.35
2022-10-01T23:15:37.304Z,5.78
2022-10-01T23:20:51.865Z,6.63
2022-10-01T23:26:12.821Z,4.47
2022-10-01T23:31:32.800Z,5.03
2022-10-01T23:36:43.709Z,7.00
2022-10-01T23:41:50.608Z,4.72
2022-10-01T23:47:00.249Z,5.72
2022-10-01T23:52:06.543Z,8.45
2022-10-01T23:57:15.763Z,5.78
